Terminal Aerodrome Forecast
Issued by NWS

Home | Current Version | Previous Version | Text Only | Print | Product List | Glossary On
Versions: 1 2 3 4 5 6 7 8 9 10 11 12 13 14 15 16 17 18 19 20 21 22 23 24 25 26 27 28 29 30 31 32 33 34 35 36 37 38 39 40 41 42
000
FTUS45 KGJT 201131
TAFCNY
TAF
KCNY 201131Z 2012/2112 VRB02KT 6SM BR BKN025 OVC040
     FM201430 VRB04KT P6SM VCFG SCT020 BKN050
     FM201800 34004KT P6SM BKN050 BKN100
     FM210200 34006KT P6SM SCT050 OVC090=

USA.gov is the U.S. government's official web portal to all federal, state and local government web resources and services.